sensor_id;sensor_type;location;lat;lon;timestamp;temperature;humidity
52058;DHT22;38063;53.210;6.504;2023-02-08T00:01:10;-2.50;99.90
52058;DHT22;38063;53.210;6.504;2023-02-08T00:03:37;-2.50;99.90
52058;DHT22;38063;53.210;6.504;2023-02-08T00:06:04;-2.40;99.90
52058;DHT22;38063;53.210;6.504;2023-02-08T00:08:30;-2.10;99.90
52058;DHT22;38063;53.210;6.504;2023-02-08T00:10:56;-2.50;99.90
52058;DHT22;38063;53.210;6.504;2023-02-08T00:13:23;-2.50;99.90
52058;DHT22;38063;53.210;6.504;2023-02-08T00:15:51;-2.50;99.90
52058;DHT22;38063;53.210;6.504;2023-02-08T00:18:17;-2.50;99.90
52058;DHT22;38063;53.210;6.504;2023-02-08T00:20:43;-2.60;99.90
52058;DHT22;38063;53.210;6.504;2023-02-08T00:23:10;-2.60;99.90
52058;DHT22;38063;53.210;6.504;2023-02-08T00:25:36;-2.60;99.90
52058;DHT22;38063;53.210;6.504;2023-02-08T00:28:02;-2.60;99.90
52058;DHT22;38063;53.210;6.504;2023-02-08T00:30:28;-2.70;99.90
52058;DHT22;38063;53.210;6.504;2023-02-08T00:32:53;-2.70;99.90
52058;DHT22;38063;53.210;6.504;2023-02-08T00:35:19;-2.70;99.90
52058;DHT22;38063;53.210;6.504;2023-02-08T00:37:45;-2.70;99.90
52058;DHT22;38063;53.210;6.504;2023-02-08T00:40:10;-2.70;99.90
52058;DHT22;38063;53.210;6.504;2023-02-08T00:42:36;-2.70;99.90
52058;DHT22;38063;53.210;6.504;2023-02-08T00:45:02;-2.70;99.90
52058;DHT22;38063;53.210;6.504;2023-02-08T00:47:28;-2.70;99.90
52058;DHT22;38063;53.210;6.504;2023-02-08T00:49:54;-2.80;99.90
52058;DHT22;38063;53.210;6.504;2023-02-08T00:52:19;-2.70;99.90
52058;DHT22;38063;53.210;6.504;2023-02-08T00:54:45;-2.80;99.90
52058;DHT22;38063;53.210;6.504;2023-02-08T00:57:11;-2.70;99.90
52058;DHT22;38063;53.210;6.504;2023-02-08T00:59:37;-2.80;99.90
52058;DHT22;38063;53.210;6.504;2023-02-08T01:02:03;-2.80;99.90
52058;DHT22;38063;53.210;6.504;2023-02-08T01:04:29;-2.80;99.90
52058;DHT22;38063;53.210;6.504;2023-02-08T01:06:55;-2.80;99.90
52058;DHT22;38063;53.210;6.504;2023-02-08T01:09:21;-2.80;99.90
52058;DHT22;38063;53.210;6.504;2023-02-08T01:11:46;-2.80;99.90
52058;DHT22;38063;53.210;6.504;2023-02-08T01:14:12;-2.80;99.90
52058;DHT22;38063;53.210;6.504;2023-02-08T01:16:38;-2.80;99.90
52058;DHT22;38063;53.210;6.504;2023-02-08T01:19:04;-2.80;99.90
52058;DHT22;38063;53.210;6.504;2023-02-08T01:21:36;-2.80;99.90
52058;DHT22;38063;53.210;6.504;2023-02-08T01:24:02;-2.80;99.90
52058;DHT22;38063;53.210;6.504;2023-02-08T01:26:28;-2.80;99.90
52058;DHT22;38063;53.210;6.504;2023-02-08T01:28:55;-2.90;99.90
52058;DHT22;38063;53.210;6.504;2023-02-08T01:31:23;-2.90;99.90
52058;DHT22;38063;53.210;6.504;2023-02-08T01:33:49;-2.90;99.90
52058;DHT22;38063;53.210;6.504;2023-02-08T01:36:16;-2.90;99.90
52058;DHT22;38063;53.210;6.504;2023-02-08T01:38:43;-2.90;99.90
52058;DHT22;38063;53.210;6.504;2023-02-08T01:41:14;-2.90;99.90
52058;DHT22;38063;53.210;6.504;2023-02-08T01:46:41;-3.30;99.90
52058;DHT22;38063;53.210;6.504;2023-02-08T01:49:33;-2.90;99.90
52058;DHT22;38063;53.210;6.504;2023-02-08T01:52:12;-2.90;99.90
52058;DHT22;38063;53.210;6.504;2023-02-08T01:54:46;-2.90;99.90
52058;DHT22;38063;53.210;6.504;2023-02-08T01:57:13;-3.00;99.90
52058;DHT22;38063;53.210;6.504;2023-02-08T02:00:03;-2.90;99.90
52058;DHT22;38063;53.210;6.504;2023-02-08T02:02:31;-2.90;99.90
52058;DHT22;38063;53.210;6.504;2023-02-08T02:04:57;-3.00;99.90
52058;DHT22;38063;53.210;6.504;2023-02-08T02:07:25;-2.90;99.90
52058;DHT22;38063;53.210;6.504;2023-02-08T02:09:57;-3.00;99.90
52058;DHT22;38063;53.210;6.504;2023-02-08T02:12:25;-3.00;99.90
52058;DHT22;38063;53.210;6.504;2023-02-08T02:14:51;-3.00;99.90
52058;DHT22;38063;53.210;6.504;2023-02-08T02:17:18;-3.00;99.90
52058;DHT22;38063;53.210;6.504;2023-02-08T02:34:38;-3.00;99.90
52058;DHT22;38063;53.210;6.504;2023-02-08T02:37:36;-3.00;99.90
52058;DHT22;38063;53.210;6.504;2023-02-08T02:40:18;-3.00;99.90
52058;DHT22;38063;53.210;6.504;2023-02-08T02:45:54;-3.10;99.90
52058;DHT22;38063;53.210;6.504;2023-02-08T02:51:12;-3.10;99.90
52058;DHT22;38063;53.210;6.504;2023-02-08T02:56:17;-3.00;99.90
52058;DHT22;38063;53.210;6.504;2023-02-08T02:58:44;-3.00;99.90
52058;DHT22;38063;53.210;6.504;2023-02-08T03:01:10;-3.00;99.90
52058;DHT22;38063;53.210;6.504;2023-02-08T03:03:36;-3.00;99.90
52058;DHT22;38063;53.210;6.504;2023-02-08T03:06:05;-3.00;99.90
52058;DHT22;38063;53.210;6.504;2023-02-08T03:11:24;-3.00;99.90
52058;DHT22;38063;53.210;6.504;2023-02-08T03:14:14;-3.00;99.90
52058;DHT22;38063;53.210;6.504;2023-02-08T03:19:34;-3.00;99.90
52058;DHT22;38063;53.210;6.504;2023-02-08T03:22:18;-3.00;99.90
52058;DHT22;38063;53.210;6.504;2023-02-08T03:24:54;-3.00;99.90
52058;DHT22;38063;53.210;6.504;2023-02-08T03:27:31;-2.90;99.90
52058;DHT22;38063;53.210;6.504;2023-02-08T03:35:03;-3.00;99.90
52058;DHT22;38063;53.210;6.504;2023-02-08T03:37:47;-3.00;99.90
52058;DHT22;38063;53.210;6.504;2023-02-08T03:40:21;-3.00;99.90
52058;DHT22;38063;53.210;6.504;2023-02-08T03:42:49;-3.00;99.90
52058;DHT22;38063;53.210;6.504;2023-02-08T03:45:23;-3.00;99.90
52058;DHT22;38063;53.210;6.504;2023-02-08T03:47:52;-3.00;99.90
52058;DHT22;38063;53.210;6.504;2023-02-08T03:50:21;-3.10;99.90
52058;DHT22;38063;53.210;6.504;2023-02-08T03:52:48;-3.10;99.90
52058;DHT22;38063;53.210;6.504;2023-02-08T03:55:21;-3.10;99.90
52058;DHT22;38063;53.210;6.504;2023-02-08T03:57:58;-3.10;99.90
52058;DHT22;38063;53.210;6.504;2023-02-08T04:00:29;-3.10;99.90
52058;DHT22;38063;53.210;6.504;2023-02-08T04:03:11;-3.10;99.90
52058;DHT22;38063;53.210;6.504;2023-02-08T04:05:37;-3.10;99.90
52058;DHT22;38063;53.210;6.504;2023-02-08T04:08:03;-3.10;99.90
52058;DHT22;38063;53.210;6.504;2023-02-08T04:10:29;-3.10;99.90
52058;DHT22;38063;53.210;6.504;2023-02-08T04:12:55;-3.10;99.90
52058;DHT22;38063;53.210;6.504;2023-02-08T04:15:20;-3.20;99.90
52058;DHT22;38063;53.210;6.504;2023-02-08T04:17:46;-3.10;99.90
52058;DHT22;38063;53.210;6.504;2023-02-08T04:20:12;-3.10;99.90
52058;DHT22;38063;53.210;6.504;2023-02-08T04:22:38;-3.10;99.90
52058;DHT22;38063;53.210;6.504;2023-02-08T04:25:04;-3.10;99.90
52058;DHT22;38063;53.210;6.504;2023-02-08T04:27:30;-3.10;99.90
52058;DHT22;38063;53.210;6.504;2023-02-08T04:29:55;-3.10;99.90
52058;DHT22;38063;53.210;6.504;2023-02-08T04:32:21;-3.10;99.90
52058;DHT22;38063;53.210;6.504;2023-02-08T04:34:47;-3.10;99.90
52058;DHT22;38063;53.210;6.504;2023-02-08T04:37:12;-3.10;99.90
52058;DHT22;38063;53.210;6.504;2023-02-08T04:39:38;-2.10;99.90
52058;DHT22;38063;53.210;6.504;2023-02-08T04:42:04;-3.20;99.90
52058;DHT22;38063;53.210;6.504;2023-02-08T04:44:29;-3.20;99.90
52058;DHT22;38063;53.210;6.504;2023-02-08T04:46:58;-3.20;99.90
52058;DHT22;38063;53.210;6.504;2023-02-08T04:49:23;-3.20;99.90
52058;DHT22;38063;53.210;6.504;2023-02-08T04:51:49;-2.60;99.90
52058;DHT22;38063;53.210;6.504;2023-02-08T04:54:14;-3.20;99.90
52058;DHT22;38063;53.210;6.504;2023-02-08T04:56:40;-3.20;99.90
52058;DHT22;38063;53.210;6.504;2023-02-08T04:59:06;-3.20;99.90
52058;DHT22;38063;53.210;6.504;2023-02-08T05:01:31;-3.20;99.90
52058;DHT22;38063;53.210;6.504;2023-02-08T05:03:57;-3.30;99.90
52058;DHT22;38063;53.210;6.504;2023-02-08T05:06:23;-3.20;99.90
52058;DHT22;38063;53.210;6.504;2023-02-08T05:08:48;-3.20;99.90
52058;DHT22;38063;53.210;6.504;2023-02-08T05:11:22;-3.20;99.90
52058;DHT22;38063;53.210;6.504;2023-02-08T05:13:48;-3.00;99.90
52058;DHT22;38063;53.210;6.504;2023-02-08T05:16:14;-2.80;99.90
52058;DHT22;38063;53.210;6.504;2023-02-08T05:18:40;-3.30;99.90
52058;DHT22;38063;53.210;6.504;2023-02-08T05:21:06;-3.30;99.90
52058;DHT22;38063;53.210;6.504;2023-02-08T05:23:31;-3.40;99.90
52058;DHT22;38063;53.210;6.504;2023-02-08T05:25:58;-3.30;99.90
52058;DHT22;38063;53.210;6.504;2023-02-08T05:28:23;-3.40;99.90
52058;DHT22;38063;53.210;6.504;2023-02-08T05:30:49;-3.40;99.90
52058;DHT22;38063;53.210;6.504;2023-02-08T05:33:15;-3.40;99.90
52058;DHT22;38063;53.210;6.504;2023-02-08T05:35:41;-3.40;99.90
52058;DHT22;38063;53.210;6.504;2023-02-08T05:38:09;-3.40;99.90
52058;DHT22;38063;53.210;6.504;2023-02-08T05:40:35;-3.40;99.90
52058;DHT22;38063;53.210;6.504;2023-02-08T05:43:01;-3.40;99.90
52058;DHT22;38063;53.210;6.504;2023-02-08T05:45:26;-3.40;99.90
52058;DHT22;38063;53.210;6.504;2023-02-08T05:47:52;-3.50;99.90
52058;DHT22;38063;53.210;6.504;2023-02-08T05:50:18;-3.50;99.90
52058;DHT22;38063;53.210;6.504;2023-02-08T05:52:43;-3.40;99.90
52058;DHT22;38063;53.210;6.504;2023-02-08T05:55:09;-3.50;99.90
52058;DHT22;38063;53.210;6.504;2023-02-08T05:57:35;-3.50;99.90
52058;DHT22;38063;53.210;6.504;2023-02-08T06:00:05;-3.50;99.90
52058;DHT22;38063;53.210;6.504;2023-02-08T06:02:31;-3.50;99.90
52058;DHT22;38063;53.210;6.504;2023-02-08T06:04:58;-3.50;99.90
52058;DHT22;38063;53.210;6.504;2023-02-08T06:07:24;-3.50;99.90
52058;DHT22;38063;53.210;6.504;2023-02-08T06:09:49;-3.40;99.90
52058;DHT22;38063;53.210;6.504;2023-02-08T06:12:15;-3.50;99.90
52058;DHT22;38063;53.210;6.504;2023-02-08T06:14:41;-2.10;99.90
52058;DHT22;38063;53.210;6.504;2023-02-08T06:17:06;-3.40;99.90
52058;DHT22;38063;53.210;6.504;2023-02-08T06:19:32;-3.50;99.90
52058;DHT22;38063;53.210;6.504;2023-02-08T06:21:58;-3.40;99.90
52058;DHT22;38063;53.210;6.504;2023-02-08T06:24:23;-3.40;99.90
52058;DHT22;38063;53.210;6.504;2023-02-08T06:26:49;-3.40;99.90
52058;DHT22;38063;53.210;6.504;2023-02-08T06:29:15;-3.40;99.90
52058;DHT22;38063;53.210;6.504;2023-02-08T06:31:41;-2.30;99.90
52058;DHT22;38063;53.210;6.504;2023-02-08T06:34:07;-3.40;99.90
52058;DHT22;38063;53.210;6.504;2023-02-08T06:36:32;-3.40;99.90
52058;DHT22;38063;53.210;6.504;2023-02-08T06:38:58;-3.40;99.90
52058;DHT22;38063;53.210;6.504;2023-02-08T06:41:24;-3.30;99.90
52058;DHT22;38063;53.210;6.504;2023-02-08T06:43:50;-3.30;99.90
52058;DHT22;38063;53.210;6.504;2023-02-08T06:46:15;-3.30;99.90
52058;DHT22;38063;53.210;6.504;2023-02-08T06:48:41;-3.30;99.90
52058;DHT22;38063;53.210;6.504;2023-02-08T06:51:06;-3.30;99.90
52058;DHT22;38063;53.210;6.504;2023-02-08T06:53:32;-3.30;99.90
52058;DHT22;38063;53.210;6.504;2023-02-08T06:55:58;-3.30;99.90
52058;DHT22;38063;53.210;6.504;2023-02-08T06:58:24;-3.30;99.90
52058;DHT22;38063;53.210;6.504;2023-02-08T07:00:49;-3.30;99.90
52058;DHT22;38063;53.210;6.504;2023-02-08T07:03:15;-3.30;99.90
52058;DHT22;38063;53.210;6.504;2023-02-08T07:05:43;-3.30;99.90
52058;DHT22;38063;53.210;6.504;2023-02-08T07:08:09;-3.30;99.90
52058;DHT22;38063;53.210;6.504;2023-02-08T07:10:37;-3.30;99.90
52058;DHT22;38063;53.210;6.504;2023-02-08T07:13:03;-3.30;99.90
52058;DHT22;38063;53.210;6.504;2023-02-08T07:15:29;-3.30;99.90
52058;DHT22;38063;53.210;6.504;2023-02-08T07:17:56;-3.30;99.90
52058;DHT22;38063;53.210;6.504;2023-02-08T07:20:21;-3.30;99.90
52058;DHT22;38063;53.210;6.504;2023-02-08T07:22:47;-3.30;99.90
52058;DHT22;38063;53.210;6.504;2023-02-08T07:25:13;-3.30;99.90
52058;DHT22;38063;53.210;6.504;2023-02-08T07:27:38;-3.30;99.90
52058;DHT22;38063;53.210;6.504;2023-02-08T07:30:04;-3.30;99.90
52058;DHT22;38063;53.210;6.504;2023-02-08T07:32:30;-3.30;99.90
52058;DHT22;38063;53.210;6.504;2023-02-08T07:34:56;-3.30;99.90
52058;DHT22;38063;53.210;6.504;2023-02-08T07:37:22;-3.30;99.90
52058;DHT22;38063;53.210;6.504;2023-02-08T07:39:48;-3.20;99.90
52058;DHT22;38063;53.210;6.504;2023-02-08T07:42:14;-3.20;99.90
52058;DHT22;38063;53.210;6.504;2023-02-08T07:44:39;-3.20;99.90
52058;DHT22;38063;53.210;6.504;2023-02-08T07:47:05;-3.10;99.90
52058;DHT22;38063;53.210;6.504;2023-02-08T07:49:32;-2.80;99.90
52058;DHT22;38063;53.210;6.504;2023-02-08T07:52:01;-3.10;99.90
52058;DHT22;38063;53.210;6.504;2023-02-08T07:54:28;-3.00;99.90
52058;DHT22;38063;53.210;6.504;2023-02-08T07:56:54;-3.00;99.90
52058;DHT22;38063;53.210;6.504;2023-02-08T07:59:20;-3.00;99.90
52058;DHT22;38063;53.210;6.504;2023-02-08T08:01:45;-2.90;99.90
52058;DHT22;38063;53.210;6.504;2023-02-08T08:04:11;-2.90;99.90
52058;DHT22;38063;53.210;6.504;2023-02-08T08:06:37;-2.80;99.90
52058;DHT22;38063;53.210;6.504;2023-02-08T08:09:03;-2.80;99.90
52058;DHT22;38063;53.210;6.504;2023-02-08T08:11:28;-2.70;99.90
52058;DHT22;38063;53.210;6.504;2023-02-08T08:13:54;-2.70;99.90
52058;DHT22;38063;53.210;6.504;2023-02-08T08:16:19;-2.60;99.90
52058;DHT22;38063;53.210;6.504;2023-02-08T08:18:45;-2.50;99.90
52058;DHT22;38063;53.210;6.504;2023-02-08T08:21:11;-2.40;99.90
52058;DHT22;38063;53.210;6.504;2023-02-08T08:23:37;-2.40;99.90
52058;DHT22;38063;53.210;6.504;2023-02-08T08:26:18;-2.40;99.90
52058;DHT22;38063;53.210;6.504;2023-02-08T08:28:44;-2.30;99.90
52058;DHT22;38063;53.210;6.504;2023-02-08T08:31:16;-2.30;99.90
52058;DHT22;38063;53.210;6.504;2023-02-08T08:33:42;-2.20;99.90
52058;DHT22;38063;53.210;6.504;2023-02-08T08:36:09;-2.10;99.90
52058;DHT22;38063;53.210;6.504;2023-02-08T08:38:34;-1.00;99.90
52058;DHT22;38063;53.210;6.504;2023-02-08T08:41:09;-2.00;99.90
52058;DHT22;38063;53.210;6.504;2023-02-08T08:43:35;-1.60;99.90
52058;DHT22;38063;53.210;6.504;2023-02-08T08:46:00;-2.00;99.90
52058;DHT22;38063;53.210;6.504;2023-02-08T08:48:26;-1.90;99.90
52058;DHT22;38063;53.210;6.504;2023-02-08T08:50:53;-1.80;99.90
52058;DHT22;38063;53.210;6.504;2023-02-08T08:53:19;-1.80;99.90
52058;DHT22;38063;53.210;6.504;2023-02-08T08:55:46;-1.70;99.90
52058;DHT22;38063;53.210;6.504;2023-02-08T08:58:12;-1.70;99.90
52058;DHT22;38063;53.210;6.504;2023-02-08T09:00:38;-1.70;99.90
52058;DHT22;38063;53.210;6.504;2023-02-08T09:03:03;-1.60;99.90
52058;DHT22;38063;53.210;6.504;2023-02-08T09:05:29;-1.50;99.90
52058;DHT22;38063;53.210;6.504;2023-02-08T09:07:55;-1.40;99.90
52058;DHT22;38063;53.210;6.504;2023-02-08T09:10:20;-1.40;99.90
52058;DHT22;38063;53.210;6.504;2023-02-08T09:12:46;-1.40;99.90
52058;DHT22;38063;53.210;6.504;2023-02-08T09:15:12;-1.30;99.90
52058;DHT22;38063;53.210;6.504;2023-02-08T09:17:37;-1.30;99.90
52058;DHT22;38063;53.210;6.504;2023-02-08T09:20:04;-1.30;99.90
52058;DHT22;38063;53.210;6.504;2023-02-08T09:22:29;-1.20;99.90
52058;DHT22;38063;53.210;6.504;2023-02-08T09:24:55;-1.20;99.90
52058;DHT22;38063;53.210;6.504;2023-02-08T09:27:21;-1.20;99.90
52058;DHT22;38063;53.210;6.504;2023-02-08T09:29:47;-1.20;99.90
52058;DHT22;38063;53.210;6.504;2023-02-08T09:32:13;-1.10;99.90
52058;DHT22;38063;53.210;6.504;2023-02-08T09:34:38;-1.10;99.90
52058;DHT22;38063;53.210;6.504;2023-02-08T09:37:04;-1.00;99.90
52058;DHT22;38063;53.210;6.504;2023-02-08T09:39:31;-1.00;99.90
52058;DHT22;38063;53.210;6.504;2023-02-08T09:44:51;-0.90;99.90
52058;DHT22;38063;53.210;6.504;2023-02-08T09:47:30;-0.90;99.90
52058;DHT22;38063;53.210;6.504;2023-02-08T09:50:08;-0.80;99.90
52058;DHT22;38063;53.210;6.504;2023-02-08T09:52:43;-0.80;99.90
52058;DHT22;38063;53.210;6.504;2023-02-08T09:55:36;-0.70;99.90
52058;DHT22;38063;53.210;6.504;2023-02-08T10:00:57;-0.60;99.90
52058;DHT22;38063;53.210;6.504;2023-02-08T10:05:48;-0.50;99.90
52058;DHT22;38063;53.210;6.504;2023-02-08T10:08:14;-0.50;99.90
52058;DHT22;38063;53.210;6.504;2023-02-08T10:15:57;-0.30;99.90
52058;DHT22;38063;53.210;6.504;2023-02-08T10:18:39;-0.30;99.90
52058;DHT22;38063;53.210;6.504;2023-02-08T10:21:34;-0.20;99.90
52058;DHT22;38063;53.210;6.504;2023-02-08T10:26:48;0.00;99.90
52058;DHT22;38063;53.210;6.504;2023-02-08T10:32:13;0.10;99.90
52058;DHT22;38063;53.210;6.504;2023-02-08T10:34:57;0.20;99.90
52058;DHT22;38063;53.210;6.504;2023-02-08T10:37:29;0.30;99.90
52058;DHT22;38063;53.210;6.504;2023-02-08T10:40:06;0.30;99.90
52058;DHT22;38063;53.210;6.504;2023-02-08T10:42:38;0.40;99.90
52058;DHT22;38063;53.210;6.504;2023-02-08T10:45:26;0.50;99.90
52058;DHT22;38063;53.210;6.504;2023-02-08T10:47:57;0.60;99.90
52058;DHT22;38063;53.210;6.504;2023-02-08T10:52:55;0.80;99.90
52058;DHT22;38063;53.210;6.504;2023-02-08T10:55:21;0.90;99.90
52058;DHT22;38063;53.210;6.504;2023-02-08T10:57:49;0.90;99.90
52058;DHT22;38063;53.210;6.504;2023-02-08T11:00:21;1.00;99.90
52058;DHT22;38063;53.210;6.504;2023-02-08T11:02:51;1.00;99.90
52058;DHT22;38063;53.210;6.504;2023-02-08T11:08:07;1.10;99.90
52058;DHT22;38063;53.210;6.504;2023-02-08T11:10:34;1.20;99.90
52058;DHT22;38063;53.210;6.504;2023-02-08T11:18:28;1.30;99.90
52058;DHT22;38063;53.210;6.504;2023-02-08T11:20:59;1.50;99.90
52058;DHT22;38063;53.210;6.504;2023-02-08T11:23:34;1.70;99.90
52058;DHT22;38063;53.210;6.504;2023-02-08T11:28:42;1.80;99.90
52058;DHT22;38063;53.210;6.504;2023-02-08T11:31:16;1.90;99.90
52058;DHT22;38063;53.210;6.504;2023-02-08T11:34:10;2.00;99.90
52058;DHT22;38063;53.210;6.504;2023-02-08T11:36:42;2.10;99.90
52058;DHT22;38063;53.210;6.504;2023-02-08T11:39:23;2.30;99.90
52058;DHT22;38063;53.210;6.504;2023-02-08T11:41:52;2.30;99.90
52058;DHT22;38063;53.210;6.504;2023-02-08T11:44:30;2.40;99.90
52058;DHT22;38063;53.210;6.504;2023-02-08T11:47:00;2.50;99.90
52058;DHT22;38063;53.210;6.504;2023-02-08T11:49:35;2.50;99.90
52058;DHT22;38063;53.210;6.504;2023-02-08T11:52:01;2.70;99.90
52058;DHT22;38063;53.210;6.504;2023-02-08T11:54:39;2.80;99.90
52058;DHT22;38063;53.210;6.504;2023-02-08T11:57:31;2.90;99.90
52058;DHT22;38063;53.210;6.504;2023-02-08T12:00:20;2.80;99.90
52058;DHT22;38063;53.210;6.504;2023-02-08T12:02:49;2.90;99.90
52058;DHT22;38063;53.210;6.504;2023-02-08T12:05:23;3.00;99.90
52058;DHT22;38063;53.210;6.504;2023-02-08T12:08:13;3.10;99.90
52058;DHT22;38063;53.210;6.504;2023-02-08T12:22:20;3.40;99.90
52058;DHT22;38063;53.210;6.504;2023-02-08T12:24:49;3.40;99.90
52058;DHT22;38063;53.210;6.504;2023-02-08T12:43:57;3.90;99.90
52058;DHT22;38063;53.210;6.504;2023-02-08T12:46:47;4.00;99.90
52058;DHT22;38063;53.210;6.504;2023-02-08T12:57:01;4.20;99.90
52058;DHT22;38063;53.210;6.504;2023-02-08T12:59:42;4.20;99.90
52058;DHT22;38063;53.210;6.504;2023-02-08T13:02:37;4.30;99.90
52058;DHT22;38063;53.210;6.504;2023-02-08T13:05:15;4.40;99.90
52058;DHT22;38063;53.210;6.504;2023-02-08T13:07:43;4.50;99.90
52058;DHT22;38063;53.210;6.504;2023-02-08T13:10:33;4.50;99.90
52058;DHT22;38063;53.210;6.504;2023-02-08T13:13:26;4.50;99.90
52058;DHT22;38063;53.210;6.504;2023-02-08T13:16:12;4.60;99.90
52058;DHT22;38063;53.210;6.504;2023-02-08T13:18:46;6.20;99.90
52058;DHT22;38063;53.210;6.504;2023-02-08T13:21:23;4.60;99.90
52058;DHT22;38063;53.210;6.504;2023-02-08T13:23:49;4.90;99.90
52058;DHT22;38063;53.210;6.504;2023-02-08T13:26:27;4.80;99.90
52058;DHT22;38063;53.210;6.504;2023-02-08T13:29:01;4.80;99.90
52058;DHT22;38063;53.210;6.504;2023-02-08T13:31:48;4.90;99.90
52058;DHT22;38063;53.210;6.504;2023-02-08T13:34:45;4.90;99.90
52058;DHT22;38063;53.210;6.504;2023-02-08T13:37:23;5.00;99.90
52058;DHT22;38063;53.210;6.504;2023-02-08T13:40:00;5.00;99.90
52058;DHT22;38063;53.210;6.504;2023-02-08T13:42:46;5.10;99.90
52058;DHT22;38063;53.210;6.504;2023-02-08T13:45:34;5.10;99.90
52058;DHT22;38063;53.210;6.504;2023-02-08T13:48:06;5.10;99.90
52058;DHT22;38063;53.210;6.504;2023-02-08T13:53:10;5.10;99.90
52058;DHT22;38063;53.210;6.504;2023-02-08T13:55:41;5.20;99.90
52058;DHT22;38063;53.210;6.504;2023-02-08T14:03:20;5.30;99.90
52058;DHT22;38063;53.210;6.504;2023-02-08T14:05:49;5.30;99.90
52058;DHT22;38063;53.210;6.504;2023-02-08T14:14:00;5.50;99.90
52058;DHT22;38063;53.210;6.504;2023-02-08T14:18:59;5.60;99.90
52058;DHT22;38063;53.210;6.504;2023-02-08T14:21:31;5.60;99.90
52058;DHT22;38063;53.210;6.504;2023-02-08T14:24:03;5.70;99.90
52058;DHT22;38063;53.210;6.504;2023-02-08T14:26:30;5.70;99.90
52058;DHT22;38063;53.210;6.504;2023-02-08T14:29:02;5.70;99.90
52058;DHT22;38063;53.210;6.504;2023-02-08T14:31:43;5.80;99.90
52058;DHT22;38063;53.210;6.504;2023-02-08T14:34:32;5.80;99.90
52058;DHT22;38063;53.210;6.504;2023-02-08T14:37:04;5.70;99.90
52058;DHT22;38063;53.210;6.504;2023-02-08T14:39:33;5.80;99.90
52058;DHT22;38063;53.210;6.504;2023-02-08T14:42:08;5.80;99.90
52058;DHT22;38063;53.210;6.504;2023-02-08T14:44:44;5.90;99.90
52058;DHT22;38063;53.210;6.504;2023-02-08T14:50:24;5.90;99.90
52058;DHT22;38063;53.210;6.504;2023-02-08T14:55:41;6.00;99.30
52058;DHT22;38063;53.210;6.504;2023-02-08T14:58:13;6.00;99.90
52058;DHT22;38063;53.210;6.504;2023-02-08T15:00:40;6.00;99.90
52058;DHT22;38063;53.210;6.504;2023-02-08T15:03:15;6.10;99.90
52058;DHT22;38063;53.210;6.504;2023-02-08T15:08:28;6.10;99.00
52058;DHT22;38063;53.210;6.504;2023-02-08T15:10:55;6.10;99.90
52058;DHT22;38063;53.210;6.504;2023-02-08T15:13:22;6.10;99.90
52058;DHT22;38063;53.210;6.504;2023-02-08T15:15:56;6.20;99.90
52058;DHT22;38063;53.210;6.504;2023-02-08T15:18:26;6.20;99.40
52058;DHT22;38063;53.210;6.504;2023-02-08T15:21:17;6.10;99.90
52058;DHT22;38063;53.210;6.504;2023-02-08T15:23:58;6.00;99.00
52058;DHT22;38063;53.210;6.504;2023-02-08T15:26:23;6.00;99.80
52058;DHT22;38063;53.210;6.504;2023-02-08T15:28:50;6.00;99.90
52058;DHT22;38063;53.210;6.504;2023-02-08T15:31:42;6.60;99.90
52058;DHT22;38063;53.210;6.504;2023-02-08T15:34:09;5.90;99.40
52058;DHT22;38063;53.210;6.504;2023-02-08T15:36:36;5.80;99.90
52058;DHT22;38063;53.210;6.504;2023-02-08T15:39:30;5.70;99.90
52058;DHT22;38063;53.210;6.504;2023-02-08T15:41:57;5.60;99.90
52058;DHT22;38063;53.210;6.504;2023-02-08T15:44:28;5.50;99.90
52058;DHT22;38063;53.210;6.504;2023-02-08T15:46:59;5.40;99.90
52058;DHT22;38063;53.210;6.504;2023-02-08T15:49:31;5.30;99.90
52058;DHT22;38063;53.210;6.504;2023-02-08T15:51:58;5.20;99.90
52058;DHT22;38063;53.210;6.504;2023-02-08T15:54:24;5.10;99.90
52058;DHT22;38063;53.210;6.504;2023-02-08T15:56:58;5.00;99.90
52058;DHT22;38063;53.210;6.504;2023-02-08T15:59:31;4.90;99.90
52058;DHT22;38063;53.210;6.504;2023-02-08T16:02:03;4.70;99.90
52058;DHT22;38063;53.210;6.504;2023-02-08T16:04:42;4.60;99.90
52058;DHT22;38063;53.210;6.504;2023-02-08T16:07:23;4.50;99.90
52058;DHT22;38063;53.210;6.504;2023-02-08T16:09:50;4.50;99.90
52058;DHT22;38063;53.210;6.504;2023-02-08T16:12:21;4.40;99.90
52058;DHT22;38063;53.210;6.504;2023-02-08T16:14:47;4.30;99.90
52058;DHT22;38063;53.210;6.504;2023-02-08T16:17:42;4.50;99.90
52058;DHT22;38063;53.210;6.504;2023-02-08T16:20:21;4.10;99.90
52058;DHT22;38063;53.210;6.504;2023-02-08T16:22:57;4.00;99.90
52058;DHT22;38063;53.210;6.504;2023-02-08T16:25:42;3.90;99.90
52058;DHT22;38063;53.210;6.504;2023-02-08T16:28:28;3.80;99.90
52058;DHT22;38063;53.210;6.504;2023-02-08T16:30:55;3.70;99.90
52058;DHT22;38063;53.210;6.504;2023-02-08T16:33:22;3.70;99.90
52058;DHT22;38063;53.210;6.504;2023-02-08T16:35:48;3.60;99.90
52058;DHT22;38063;53.210;6.504;2023-02-08T16:38:20;3.50;99.90
52058;DHT22;38063;53.210;6.504;2023-02-08T16:40:52;3.40;99.90
52058;DHT22;38063;53.210;6.504;2023-02-08T16:43:24;3.40;99.90
52058;DHT22;38063;53.210;6.504;2023-02-08T16:48:37;3.20;99.90
52058;DHT22;38063;53.210;6.504;2023-02-08T16:51:05;3.20;99.90
52058;DHT22;38063;53.210;6.504;2023-02-08T16:53:32;2.80;99.90
52058;DHT22;38063;53.210;6.504;2023-02-08T16:55:59;3.00;99.90
52058;DHT22;38063;53.210;6.504;2023-02-08T16:58:25;2.90;99.90
52058;DHT22;38063;53.210;6.504;2023-02-08T17:00:51;2.80;99.90
52058;DHT22;38063;53.210;6.504;2023-02-08T17:03:17;2.80;99.90
52058;DHT22;38063;53.210;6.504;2023-02-08T17:05:44;2.70;99.90
52058;DHT22;38063;53.210;6.504;2023-02-08T17:08:18;2.60;99.90
52058;DHT22;38063;53.210;6.504;2023-02-08T17:10:45;2.50;99.90
52058;DHT22;38063;53.210;6.504;2023-02-08T17:13:13;2.50;99.90
52058;DHT22;38063;53.210;6.504;2023-02-08T17:15:39;2.60;99.90
52058;DHT22;38063;53.210;6.504;2023-02-08T17:18:05;2.40;99.90
52058;DHT22;38063;53.210;6.504;2023-02-08T17:20:33;2.30;99.90
52058;DHT22;38063;53.210;6.504;2023-02-08T17:23:01;2.20;99.90
52058;DHT22;38063;53.210;6.504;2023-02-08T17:25:28;2.20;99.90
52058;DHT22;38063;53.210;6.504;2023-02-08T17:27:59;2.10;99.90
52058;DHT22;38063;53.210;6.504;2023-02-08T17:30:35;2.00;99.90
52058;DHT22;38063;53.210;6.504;2023-02-08T17:33:02;2.00;99.90
52058;DHT22;38063;53.210;6.504;2023-02-08T17:35:29;1.90;99.90
52058;DHT22;38063;53.210;6.504;2023-02-08T17:37:56;1.80;99.90
52058;DHT22;38063;53.210;6.504;2023-02-08T17:40:24;1.70;99.90
52058;DHT22;38063;53.210;6.504;2023-02-08T17:42:52;1.70;99.90
52058;DHT22;38063;53.210;6.504;2023-02-08T17:45:19;1.70;99.90
52058;DHT22;38063;53.210;6.504;2023-02-08T17:47:44;1.60;99.90
52058;DHT22;38063;53.210;6.504;2023-02-08T17:50:12;1.60;99.90
52058;DHT22;38063;53.210;6.504;2023-02-08T17:52:39;1.50;99.90
52058;DHT22;38063;53.210;6.504;2023-02-08T17:55:06;1.40;99.90
52058;DHT22;38063;53.210;6.504;2023-02-08T17:57:33;1.50;99.90
52058;DHT22;38063;53.210;6.504;2023-02-08T18:00:00;1.40;99.90
52058;DHT22;38063;53.210;6.504;2023-02-08T18:02:26;1.40;99.90
52058;DHT22;38063;53.210;6.504;2023-02-08T18:04:51;1.40;99.90
52058;DHT22;38063;53.210;6.504;2023-02-08T18:07:17;1.40;99.90